Porcupine, SD (57772)

3:23 AM MDT on October 01, 2014 (GMT -0600)
RAWS PORCUPINE SD US | Change Station
CLOSE
Current Station
Personal Weather Station
Location: Porcupine, SD
Elevation: 3786 ft
Nearby Weather Stations

Elev 3786 ft 43.29 °N, 102.27 °W | Updated 42 minutes ago

Partly Cloudy
Partly Cloudy
52 °F
Feels Like 52 °F
N
9
Wind Variable Wind from SW
Gusts 16.0 mph

Today
High -- | Low -- °F
--% Chance of Precip.
Yesterday
High -- | Low -- °F
Precip. -- in
6:46 AM 6:29 PM
Waxing Crescent, 45% visible
Pressure 29.75 in
Visibility 10.0 miles
Clouds Scattered Clouds 12000 ft
Dew Point 45 °F
Humidity 78%
Rainfall 0.05 in
Snow Depth Not available.
UV 0 out of 12
Pollen .50 out of 12
Air Quality Not available.
Flu Activity Not available.
METAR KRAP 010852Z AUTO 27005KT 10SM SCT120 12/08 A2975

More Conditions Fewer Conditions

Pressure 29.75 in
Visibility 10.0 miles
Clouds Scattered Clouds 12000 ft
Dew Point 45 °F
Humidity 78%
Rainfall 0.05 in
Snow Depth Not available.
UV 0 out of 12
Pollen .50 out of 12
Air Quality Not available.
Flu Activity Not available.
METAR KRAP 010852Z AUTO 27005KT 10SM SCT120 12/08 A2975

More Conditions Fewer Conditions

10-Day Weather Forecast

Almanac

Astronomy

Oct. 01, 2014 Rise Set
Actual Time 6:46 AM MDT 6:29 PM MDT
Civil Twilight 6:17 AM MDT 6:58 PM MDT
Nautical Twilight 5:44 AM MDT 7:31 PM MDT
Astronomical Twilight 5:11 AM MDT 8:04 PM MDT
Moon 1:56 PM MDT 11:57 PM MDT
Length of Visible Light 12h 40m
Length of Day
11h 43m
Tomorrow will be 2m 56s shorter.
Waxing Crescent, 45% of the Moon is Illuminated
Today
Waxing Crescent
Oct 1
First Quarter
Oct 8
Full
Oct 15
Last Quarter
Oct 23
New

Today's Extremes

State Highs State Lows

Community

WunderPhotos

Upload Photos

1,757,902 photos uploaded!

WunderBlogs® & News

Nearby

Snow Depth

Station Depth Elevation
North Rapid Creek 0 in 6130 ft
Blind Park 1 in 6890 ft

Earthquake Activity

City Distance Mag. Time & Date
No recent earthquake activity has been reported nearby.
Minimum magnitude displayed is 2.5.

Coastal Water Temperatures

Place Temperature
No Stations Reporting

Nearby Weather Stations